createdAt,value
2022-10-19T00:01:55.336Z,102355.81
2022-10-19T00:07:43.506Z,102351.31
2022-10-19T00:13:30.310Z,102349.69
2022-10-19T00:19:21.617Z,102329.28
2022-10-19T00:25:08.656Z,102326.81
2022-10-19T00:30:55.626Z,102319.13
2022-10-19T00:36:45.129Z,102306.63
2022-10-19T00:42:32.184Z,102311.09
2022-10-19T00:48:32.367Z,102308.00
2022-10-19T00:54:23.458Z,102318.69
2022-10-19T01:00:11.571Z,102317.06
2022-10-19T01:05:59.108Z,102303.91
2022-10-19T01:11:57.695Z,102299.88
2022-10-19T01:18:01.656Z,102289.63
2022-10-19T01:24:23.899Z,102294.88
2022-10-19T01:30:16.638Z,102288.94
2022-10-19T01:36:20.191Z,102274.06
2022-10-19T01:42:19.388Z,102281.50
2022-10-19T01:48:41.147Z,102288.50
2022-10-19T01:54:31.121Z,102259.81
2022-10-19T02:00:23.076Z,102262.09
2022-10-19T02:06:20.535Z,102255.28
2022-10-19T02:12:10.702Z,102242.97
2022-10-19T02:17:59.914Z,102221.41
2022-10-19T02:23:48.360Z,102225.09
2022-10-19T02:29:43.540Z,102226.53
2022-10-19T02:35:31.480Z,102211.31
2022-10-19T02:41:30.796Z,102199.53
2022-10-19T02:47:22.494Z,102198.53
2022-10-19T02:53:09.276Z,102188.91
2022-10-19T02:58:56.860Z,102172.72
2022-10-19T03:10:38.763Z,102146.63
2022-10-19T03:16:25.690Z,102151.75
2022-10-19T03:22:14.542Z,102123.88
2022-10-19T03:28:01.203Z,102138.38
2022-10-19T03:33:48.056Z,102131.44
2022-10-19T03:39:35.087Z,102130.88
2022-10-19T03:45:22.179Z,102092.09
2022-10-19T03:51:12.999Z,102102.25
2022-10-19T03:56:59.650Z,102101.34
2022-10-19T04:02:49.367Z,102104.53
2022-10-19T04:08:36.402Z,102104.44
2022-10-19T04:14:32.683Z,102102.25
2022-10-19T04:20:21.007Z,102094.28
2022-10-19T04:26:09.771Z,102077.81
2022-10-19T04:31:56.532Z,102077.81
2022-10-19T04:37:48.108Z,102089.78
2022-10-19T04:43:35.603Z,102079.09
2022-10-19T04:49:23.507Z,102068.03
2022-10-19T04:55:12.515Z,102057.91
2022-10-19T05:00:59.370Z,102047.03
2022-10-19T05:06:53.608Z,102070.31
2022-10-19T05:12:40.534Z,102055.25
2022-10-19T05:18:28.037Z,102042.81
2022-10-19T05:24:16.905Z,102046.94
2022-10-19T05:30:08.362Z,102027.91
2022-10-19T05:35:55.278Z,102028.88
2022-10-19T05:41:46.825Z,102028.88
2022-10-19T05:47:34.219Z,102030.47
2022-10-19T05:53:21.478Z,102017.44
2022-10-19T05:59:10.640Z,102021.38
2022-10-19T06:05:00.701Z,102018.25
2022-10-19T06:10:51.226Z,102020.56
2022-10-19T06:16:38.379Z,102019.06
2022-10-19T06:22:27.564Z,102014.56
2022-10-19T06:28:15.793Z,101997.31
2022-10-19T06:41:46.739Z,101974.66
2022-10-19T06:47:38.532Z,101981.88
2022-10-19T06:53:46.941Z,101975.84
2022-10-19T06:59:33.661Z,101974.63
2022-10-19T07:05:25.722Z,101981.06
2022-10-19T07:11:16.406Z,101971.28
2022-10-19T07:17:03.056Z,101956.75
2022-10-19T07:22:53.023Z,101941.31
2022-10-19T07:28:41.499Z,101953.28
2022-10-19T07:34:29.130Z,101950.63
2022-10-19T07:40:16.029Z,101924.25
2022-10-19T07:46:08.554Z,101934.63
2022-10-19T07:51:59.858Z,101911.06
2022-10-19T07:57:48.666Z,101918.47
2022-10-19T08:09:58.977Z,101899.38
2022-10-19T08:15:50.357Z,101890.56
2022-10-19T08:21:39.419Z,101903.06
2022-10-19T08:27:26.905Z,101888.66
2022-10-19T08:33:21.500Z,101879.56
2022-10-19T08:39:09.952Z,101886.53
2022-10-19T08:45:50.929Z,101894.00
2022-10-19T08:51:46.307Z,101878.44
2022-10-19T08:58:00.946Z,101870.91
2022-10-19T09:04:20.686Z,101864.31
2022-10-19T09:10:16.605Z,101867.28
2022-10-19T09:16:05.849Z,101850.47
2022-10-19T09:22:05.111Z,101833.28
2022-10-19T09:28:31.545Z,101834.38
2022-10-19T09:34:50.273Z,101829.13
2022-10-19T09:40:46.221Z,101817.47
2022-10-19T09:46:52.626Z,101809.88
2022-10-19T09:52:42.270Z,101804.31
2022-10-19T09:58:32.986Z,101817.91
2022-10-19T10:04:20.430Z,101800.59
2022-10-19T10:10:49.340Z,101784.09
2022-10-19T10:16:38.955Z,101797.91
2022-10-19T10:22:34.927Z,101794.66
2022-10-19T10:28:36.046Z,101802.56
2022-10-19T10:34:50.083Z,101800.72
2022-10-19T10:40:41.062Z,101804.88
2022-10-19T10:46:35.868Z,101807.34
2022-10-19T10:52:23.644Z,101783.69
2022-10-19T10:58:25.425Z,101780.00
2022-10-19T11:04:23.214Z,101783.53
2022-10-19T11:10:30.394Z,101752.03
2022-10-19T11:16:19.624Z,101752.28
2022-10-19T11:22:43.970Z,101725.31
2022-10-19T11:29:06.400Z,101721.09
2022-10-19T11:35:08.936Z,101727.72
2022-10-19T11:41:18.618Z,101690.84
2022-10-19T11:47:37.326Z,101664.84
2022-10-19T11:53:41.012Z,101655.25
2022-10-19T11:59:50.791Z,101647.97
2022-10-19T12:06:16.248Z,101612.91
2022-10-19T12:12:32.851Z,101596.25
2022-10-19T12:18:35.776Z,101581.66
2022-10-19T12:24:30.714Z,101580.38
2022-10-19T12:30:28.137Z,101556.47
2022-10-19T12:37:05.989Z,101557.00
2022-10-19T12:43:17.118Z,101552.63
2022-10-19T12:49:28.805Z,101549.19
2022-10-19T12:55:18.353Z,101530.22
2022-10-19T13:01:07.334Z,101511.88
2022-10-19T13:06:57.096Z,101481.59
2022-10-19T13:12:46.958Z,101464.28
2022-10-19T13:19:11.276Z,101465.91
2022-10-19T13:25:37.771Z,101435.59
2022-10-19T13:31:53.100Z,101422.16
2022-10-19T13:37:40.614Z,101408.72
2022-10-19T13:43:56.648Z,101415.78
2022-10-19T13:50:02.145Z,101393.84
2022-10-19T13:55:59.673Z,101401.00
2022-10-19T14:01:56.065Z,101389.53
2022-10-19T14:07:54.809Z,101380.22
2022-10-19T14:13:41.997Z,101373.09
2022-10-19T14:19:32.547Z,101376.22
2022-10-19T14:25:30.341Z,101362.25
2022-10-19T14:31:23.767Z,101357.09
2022-10-19T14:37:35.073Z,101360.31
2022-10-19T14:43:32.087Z,101363.53
2022-10-19T14:49:19.021Z,101354.63
2022-10-19T14:55:32.338Z,101347.38
2022-10-19T15:01:22.137Z,101334.06
2022-10-19T15:07:43.375Z,101336.31
2022-10-19T15:13:42.510Z,101330.19
2022-10-19T15:19:35.244Z,101318.03
2022-10-19T15:25:40.065Z,101312.00
2022-10-19T15:31:42.218Z,101318.72
2022-10-19T15:37:32.533Z,101298.53
2022-10-19T15:43:36.403Z,101277.59
2022-10-19T15:49:41.844Z,101247.53
2022-10-19T15:55:29.097Z,101242.56
2022-10-19T16:01:42.245Z,101235.13
2022-10-19T16:07:44.575Z,101238.97
2022-10-19T16:13:41.973Z,101242.41
2022-10-19T16:20:11.774Z,101223.22
2022-10-19T16:26:04.622Z,101222.94
2022-10-19T16:33:15.525Z,101221.94
2022-10-19T16:39:18.377Z,101217.59
2022-10-19T16:51:54.839Z,101210.22
2022-10-19T16:57:45.101Z,101187.72
2022-10-19T17:03:32.565Z,101184.16
2022-10-19T17:09:54.510Z,101160.94
2022-10-19T17:22:53.777Z,101160.41
2022-10-19T17:28:43.979Z,101149.47
2022-10-19T17:34:31.090Z,101145.03
2022-10-19T17:40:17.942Z,101167.56
2022-10-19T17:46:07.210Z,101155.25
2022-10-19T17:51:54.183Z,101142.94
2022-10-19T17:57:41.534Z,101129.84
2022-10-19T18:03:35.256Z,101117.69
2022-10-19T18:09:23.549Z,101131.75
2022-10-19T18:15:16.233Z,101126.44
2022-10-19T18:21:07.169Z,101153.03
2022-10-19T18:27:05.912Z,101132.41
2022-10-19T18:33:00.486Z,101148.25
2022-10-19T18:38:52.431Z,101155.63
2022-10-19T18:44:42.446Z,101127.84
2022-10-19T18:50:33.364Z,101113.53
2022-10-19T18:56:26.771Z,101110.56
2022-10-19T19:02:22.821Z,101089.88
2022-10-19T19:09:22.095Z,101060.50
2022-10-19T19:15:13.996Z,101093.34
2022-10-19T19:21:05.734Z,101072.41
2022-10-19T19:26:54.757Z,101062.13
2022-10-19T20:31:40.330Z,101035.38
2022-10-19T20:37:36.292Z,101029.75
2022-10-19T20:43:24.572Z,101018.69
2022-10-19T20:49:12.717Z,100995.38
2022-10-19T20:54:59.574Z,101010.19
2022-10-19T21:00:46.546Z,101005.28
2022-10-19T21:06:57.425Z,100994.38
2022-10-19T21:12:44.339Z,100998.16
2022-10-19T21:18:33.941Z,101010.41
2022-10-19T21:24:35.450Z,101003.66
2022-10-19T21:30:22.306Z,100995.38
2022-10-19T21:36:10.165Z,100972.25
2022-10-19T21:41:57.987Z,100965.06
2022-10-19T21:47:47.022Z,100966.63
2022-10-19T21:53:35.955Z,100965.34
2022-10-19T21:59:24.771Z,100972.16
2022-10-19T22:05:11.468Z,100951.72
2022-10-19T22:10:58.206Z,100959.31
2022-10-19T22:16:45.305Z,100959.59
2022-10-19T22:22:34.163Z,100953.88
2022-10-19T22:28:24.002Z,100955.97
2022-10-19T22:34:18.979Z,100961.56
2022-10-19T22:40:06.548Z,100956.72
2022-10-19T22:45:54.392Z,100945.75
2022-10-19T22:51:41.134Z,100935.38
2022-10-19T22:57:27.853Z,100927.59
2022-10-19T23:03:16.615Z,100896.09
2022-10-19T23:09:03.754Z,100889.34
2022-10-19T23:14:50.750Z,100896.69
2022-10-19T23:20:39.720Z,100879.34
2022-10-19T23:26:26.497Z,100872.69
2022-10-19T23:32:15.370Z,100866.13
2022-10-19T23:38:08.070Z,100861.06
2022-10-19T23:43:55.229Z,100859.34
2022-10-19T23:49:42.470Z,100850.53
2022-10-19T23:55:29.447Z,100840.72
